Flight Track Log - Related Links

Times and Time Zones

All times are in EDT time to prevent confusion due to time zone crossing. See the DAL2171 flight status page for this flight to view local times or setup timezone preferences in your user account.

Time Position Orientation Groundspeed Altitude Reporting Facility
EDT Latitude Longitude Course Direction KTS MPH feet Rate Location/Type
Mon 06:01:51 AM 26.0750 -80.1297 338° Northwest 143 165 1,100  Level Miami Center
Mon 06:05:00 AM 26.5093 -80.3812 335° Northwest  Level Estimated
Mon 06:06:00 AM 26.6188 -80.4401 338° Northwest  Level FlightAware Approximate
Mon 06:07:00 AM 26.7307 -80.4904 338° Northwest  Level FlightAware Approximate
Mon 06:07:21 AM 26.4455 -80.2665 339° North 405 466 14,600  Level FlightAware ADS-B (RJTF)
Mon 06:07:54 AM 26.5044 -80.2921 339° North 401 461 16,100 2,857 Climbing FlightAware ADS-B (RJTF)
Mon 06:08:24 AM 26.5637 -80.3172 339° North 398 458 17,600 2,480 Climbing FlightAware ADS-B (RJTF)
Mon 06:09:09 AM 26.6376 -80.3478 340° North 403 464 19,200 2,080 Climbing FlightAware ADS-B (RJTF)
Mon 06:09:39 AM 26.6948 -80.3713 340° North 409 471 20,200 2,129 Climbing FlightAware ADS-B (RJTF)
Mon 06:10:11 AM 26.7498 -80.3938 340° North 414 476 21,400 1,920 Climbing FlightAware ADS-B
Mon 06:10:54 AM 26.8305 -80.4275 340° North 418 481 22,600 1,846 Climbing FlightAware ADS-B (RJTF)
Mon 06:11:03 AM 26.8468 -80.4343 339° North 421 484 23,000 1,733 Climbing FlightAware ADS-B
Mon 06:11:39 AM 26.9122 -80.4616 339° North 426 490 23,900 1,545 Climbing FlightAware ADS-B (RJTF)
Mon 06:12:09 AM 26.9696 -80.4857 340° North 431 496 24,700 1,629 Climbing FlightAware ADS-B
Mon 06:12:49 AM 27.0437 -80.5168 339° North 435 501 25,800 1,629 Climbing FlightAware ADS-B
Mon 06:13:19 AM 27.1018 -80.5411 340° North 439 505 26,600 1,600 Climbing FlightAware ADS-B
Mon 06:13:49 AM 27.1581 -80.5648 339° North 442 509 27,400 1,475 Climbing FlightAware ADS-B
Mon 06:14:20 AM 27.2192 -80.5905 339° North 447 514 28,100 1,452 Climbing FlightAware ADS-B
Mon 06:14:51 AM 27.2799 -80.6161 339° North 449 517 28,900 1,839 Climbing FlightAware ADS-B
Mon 06:15:22 AM 27.3367 -80.6400 339° North 442 509 30,000 1,869 Climbing FlightAware ADS-B
Mon 06:15:52 AM 27.3903 -80.6628 339° North 440 506 30,800 1,672 Climbing FlightAware ADS-B
Mon 06:16:23 AM 27.4566 -80.6906 340° North 440 506 31,700 1,574 Climbing FlightAware ADS-B
Mon 06:16:53 AM 27.5135 -80.7131 341° North 442 509 32,400 1,400 Climbing FlightAware ADS-B
Mon 06:17:23 AM 27.5716 -80.7358 341° North 441 507 33,100 1,475 Climbing FlightAware ADS-B
Mon 06:17:54 AM 27.6317 -80.7597 341° North 438 504 33,900 1,548 Climbing FlightAware ADS-B
Mon 06:18:25 AM 27.6920 -80.7837 340° North 436 502 34,700 1,082 Climbing FlightAware ADS-B
Mon 06:18:55 AM 27.7480 -80.8062 341° North 437 503 35,000 281 Climbing FlightAware ADS-B
Mon 06:19:29 AM 27.8126 -80.8319 340° North 434 499 35,000  Level FlightAware ADS-B
Mon 06:19:59 AM 27.8699 -80.8550 340° North 435 501 35,000  Level FlightAware ADS-B
Mon 06:20:38 AM 27.9447 -80.8853 340° North 435 501 35,000  Level FlightAware ADS-B
Mon 06:21:09 AM 28.0026 -80.9085 340° North 435 501 35,000  Level FlightAware ADS-B
Mon 06:21:39 AM 28.0581 -80.9311 340° North 436 502 35,000  Level FlightAware ADS-B
Mon 06:22:10 AM 28.1194 -80.9558 340° North 437 503 35,000  Level FlightAware ADS-B
Mon 06:22:41 AM 28.1780 -80.9794 340° North 437 503 35,000  Level FlightAware ADS-B
Mon 06:23:17 AM 28.2463 -81.0071 340° North 436 502 35,000  Level FlightAware ADS-B
Mon 06:23:47 AM 28.3037 -81.0303 340° North 435 501 35,000  Level FlightAware ADS-B
Mon 06:24:23 AM 28.3723 -81.0582 340° North 437 503 35,000  Level FlightAware ADS-B (KSFB)
Mon 06:24:55 AM 28.4083 -81.0728 340° North 438 504 35,000  Level FlightAware ADS-B (KSFB)
Mon 06:25:25 AM 28.4873 -81.1051 340° North 440 506 35,000  Level FlightAware ADS-B (KSFB)
Mon 06:25:55 AM 28.5493 -81.1302 340° North 440 506 35,000  Level FlightAware ADS-B (KSFB)
Mon 06:26:27 AM 28.6091 -81.1547 340° North 438 504 35,000  Level FlightAware ADS-B (KSFB)
Mon 06:27:03 AM 28.6780 -81.1829 340° North 436 502 35,000  Level FlightAware ADS-B
Mon 06:27:36 AM 28.7113 -81.1966 340° North 435 501 35,000  Level FlightAware ADS-B (KSFB)
Mon 06:28:06 AM 28.7977 -81.2319 340° North 433 498 35,000  Level FlightAware ADS-B (KSFB)
Mon 06:28:36 AM 28.8414 -81.2500 340° North 430 495 35,000  Level FlightAware ADS-B (KSFB)
Mon 06:29:17 AM 28.9173 -81.2811 340° North 427 491 35,000  Level FlightAware ADS-B (KSFB)
Mon 06:29:50 AM 28.9935 -81.3126 340° North 426 490 35,000  Level FlightAware ADS-B
Mon 06:30:21 AM 29.0507 -81.3361 340° North 426 490 35,000  Level FlightAware ADS-B
Mon 06:30:52 AM 29.1047 -81.3586 340° North 428 493 35,000  Level FlightAware ADS-B
Mon 06:31:22 AM 29.1619 -81.3822 340° North 426 490 35,000  Level FlightAware ADS-B
Mon 06:31:57 AM 29.2283 -81.4096 340° North 425 489 35,000  Level FlightAware ADS-B
Mon 06:32:27 AM 29.2838 -81.4325 340° North 423 487 35,000  Level FlightAware ADS-B
Mon 06:32:57 AM 29.3391 -81.4556 340° North 423 487 35,000  Level FlightAware ADS-B
Mon 06:33:27 AM 29.3946 -81.4787 340° North 423 487 35,000  Level FlightAware ADS-B
Mon 06:33:59 AM 29.4524 -81.5027 340° North 423 487 35,000  Level FlightAware ADS-B
Mon 06:34:29 AM 29.5085 -81.5261 340° North 424 488 35,000  Level FlightAware ADS-B
Mon 06:35:03 AM 29.5720 -81.5526 340° North 425 489 35,000  Level FlightAware ADS-B
Mon 06:35:33 AM 29.6269 -81.5756 340° North 423 487 35,000  Level FlightAware ADS-B
Mon 06:36:04 AM 29.6648 -81.5914 340° North 423 487 35,000  Level FlightAware ADS-B
Mon 06:36:38 AM 29.7479 -81.6263 340° North 425 489 35,000  Level FlightAware ADS-B
Mon 06:38:02 AM 29.9027 -81.6911 340° North 425 489 35,000  Level FlightAware ADS-B
Mon 06:38:56 AM 30.0028 -81.7333 340° North 424 488 35,000  Level FlightAware ADS-B
Mon 06:39:38 AM 30.0797 -81.7597 340° North 413 475 35,000  Level Jacksonville Center
Mon 06:40:38 AM 30.1908 -81.8064 340° North 413 475 35,000  Level Jacksonville Center
Mon 06:41:38 AM 30.2997 -81.8508 341° North 418 481 35,000  Level Jacksonville Center
Mon 06:42:38 AM 30.4108 -81.9003 339° North 418 481 35,000  Level Jacksonville Center
Mon 06:43:38 AM 30.5239 -81.9472 340° North 418 481 35,000  Level Jacksonville Center
Mon 06:44:38 AM 30.6350 -81.9992 338° Northwest 424 488 35,000  Level Jacksonville Center
Mon 06:45:38 AM 30.7481 -82.0467 340° North 429 494 35,000  Level Jacksonville Center
Mon 06:46:38 AM 30.8633 -82.0964 340° North 434 499 35,000  Level Jacksonville Center
Mon 06:47:38 AM 30.9764 -82.1439 340° North 434 499 35,000  Level Jacksonville Center
Mon 06:48:38 AM 31.0894 -82.1939 339° North 434 499 35,000  Level Jacksonville Center
Mon 06:49:38 AM 31.2022 -82.2417 340° North 434 499 35,000  Level Jacksonville Center
Mon 06:50:38 AM 31.3194 -82.2919 340° North 434 499 35,000  Level Jacksonville Center
Mon 06:51:38 AM 31.4178 -82.3325 341° North 427 491 35,000  Level Jacksonville Center
Mon 06:52:38 AM 31.5328 -82.3808 340° North 432 497 35,000  Level Jacksonville Center
Mon 06:53:38 AM 31.6500 -82.4314 340° North 432 497 35,000  Level Jacksonville Center
Mon 06:54:53 AM 31.8100 -82.5017 340° North 427 491 35,000  Level Atlanta Center
Mon 06:55:53 AM 31.9256 -82.5486 341° North 434 499 35,000  Level Atlanta Center
Mon 06:56:53 AM 32.0386 -82.5981 340° North 434 499 35,000  Level Atlanta Center
Mon 06:57:53 AM 32.1436 -82.6456 339° North 422 486 35,000 -300 Level Atlanta Center
Mon 06:58:53 AM 32.2486 -82.6906 340° North 411 473 34,400 -850 Descending Atlanta Center
Mon 06:59:53 AM 32.3633 -82.6889 North 402 463 33,300 -1,150 Descending Atlanta Center
Mon 07:00:53 AM 32.4781 -82.6822 North 408 470 32,100 -1,100 Descending Atlanta Center
Mon 07:01:53 AM 32.5722 -82.7028 350° North 402 463 31,100 -1,050 Descending Atlanta Center
Mon 07:02:53 AM 32.6728 -82.7433 341° North 382 440 30,000 -1,100 Descending Atlanta Center
Mon 07:03:53 AM 32.7733 -82.7739 346° North 375 432 28,900 -1,200 Descending Atlanta Center
Mon 07:04:53 AM 32.8758 -82.8072 345° North 375 432 27,600 -1,200 Descending Atlanta Center
Mon 07:05:53 AM 32.9703 -82.8453 341° North 368 423 26,500 -1,100 Descending Atlanta Center
Mon 07:06:53 AM 33.0128 -82.9364 299° West 314 361 25,400 -1,150 Descending Atlanta Center
Mon 07:07:53 AM 33.0219 -83.0331 276° West 289 333 24,200 -1,150 Descending Atlanta Center
Mon 07:08:53 AM 33.0353 -83.1319 279° West 289 333 23,100 -1,100 Descending Atlanta Center
Mon 07:09:53 AM 33.0611 -83.2408 286° West 300 345 22,000 -1,000 Descending Atlanta Center
Mon 07:10:53 AM 33.0847 -83.3372 286° West 306 352 21,100 -950 Descending Atlanta Center
Mon 07:11:53 AM 33.1103 -83.4286 288° West 292 336 20,100 -950 Descending Atlanta Center
Mon 07:12:53 AM 33.1356 -83.5178 289° West 298 343 19,200 -1,250 Descending Atlanta Center
Mon 07:13:53 AM 33.1611 -83.6119 288° West 292 336 17,600 -1,647 Descending Atlanta Center
Mon 07:14:35 AM 33.1833 -83.6667 296° West 294 338 16,400 -1,588 Descending Atlanta TRACON
Mon 07:15:35 AM 33.2000 -83.7667 281° West 279 321 14,900 -1,200 Descending Atlanta TRACON
Mon 07:16:35 AM 33.2333 -83.8333 301° West 280 322 14,000 -950 Descending Atlanta TRACON
Mon 07:17:35 AM 33.2833 -83.9167 306° West 279 321 13,000 -950 Descending Atlanta TRACON
Mon 07:18:35 AM 33.3333 -83.9833 312° West 277 319 12,100 -400 Descending Atlanta TRACON
Mon 07:19:35 AM 33.3833 -84.0500 312° West 278 320 12,200 -34 Climbing Atlanta TRACON
Mon 07:21:29 AM 33.4833 -84.2000 309° West 287 330 12,000 -69 Descending Atlanta TRACON
Mon 07:22:29 AM 33.5333 -84.2667 312° West 278 320 12,000 -737 Level Atlanta TRACON
Mon 07:23:23 AM 33.5333 -84.3500 270° West 253 291 10,600 -1,357 Descending Atlanta TRACON
Mon 07:23:53 AM 33.5369 -84.3903 276° West 248 285 10,100 -1,818 Descending Atlanta Center
Mon 07:25:35 AM 33.5333 -84.5167 268° West 235 270 6,600 -2,185 Descending Atlanta TRACON
Mon 07:26:35 AM 33.5333 -84.6000 270° West 245 282 4,200 -1,800 Descending Atlanta TRACON
Mon 07:27:35 AM 33.5333 -84.6833 270° West 251 289 3,000 -333 Descending Atlanta TRACON
Mon 07:29:35 AM 33.6000 -84.7167 337° Northwest 200 230 3,200 25 Climbing Atlanta TRACON
Mon 07:31:35 AM 33.6167 -84.5667 82° East 206 237 3,100 -345 Descending Atlanta TRACON
Mon 07:32:29 AM 33.6167 -84.5167 90° East 182 209 2,200 -1,000 Descending Atlanta TRACON

Login

Don't have an account? Register now (free) for customized features, flight alerts, and more!